sensor_id;sensor_type;location;lat;lon;timestamp;P1;durP1;ratioP1;P2;durP2;ratioP2
51738;SDS011;37815;52.692;6.226;2022-07-29T00:04:19;1.00;;;0.80;;
51738;SDS011;37815;52.692;6.226;2022-07-29T00:09:20;1.70;;;0.68;;
51738;SDS011;37815;52.692;6.226;2022-07-29T00:14:20;0.95;;;0.80;;
51738;SDS011;37815;52.692;6.226;2022-07-29T00:19:21;1.52;;;0.70;;
51738;SDS011;37815;52.692;6.226;2022-07-29T00:24:22;1.50;;;0.90;;
51738;SDS011;37815;52.692;6.226;2022-07-29T00:29:23;1.17;;;0.80;;
51738;SDS011;37815;52.692;6.226;2022-07-29T00:34:23;1.73;;;0.90;;
51738;SDS011;37815;52.692;6.226;2022-07-29T00:39:43;0.60;;;0.60;;
51738;SDS011;37815;52.692;6.226;2022-07-29T00:44:43;1.60;;;0.75;;
51738;SDS011;37815;52.692;6.226;2022-07-29T00:49:44;3.03;;;0.82;;
51738;SDS011;37815;52.692;6.226;2022-07-29T00:54:45;0.73;;;0.70;;
51738;SDS011;37815;52.692;6.226;2022-07-29T00:59:46;2.00;;;0.70;;
51738;SDS011;37815;52.692;6.226;2022-07-29T01:04:46;0.70;;;0.70;;
51738;SDS011;37815;52.692;6.226;2022-07-29T01:09:48;2.65;;;1.00;;
51738;SDS011;37815;52.692;6.226;2022-07-29T01:14:49;0.98;;;0.75;;
51738;SDS011;37815;52.692;6.226;2022-07-29T01:19:52;1.00;;;0.75;;
51738;SDS011;37815;52.692;6.226;2022-07-29T01:30:20;0.63;;;0.63;;
51738;SDS011;37815;52.692;6.226;2022-07-29T01:35:35;0.95;;;0.80;;
51738;SDS011;37815;52.692;6.226;2022-07-29T01:45:47;1.10;;;0.80;;
51738;SDS011;37815;52.692;6.226;2022-07-29T01:51:02;0.73;;;0.73;;
51738;SDS011;37815;52.692;6.226;2022-07-29T01:56:07;2.78;;;1.20;;
51738;SDS011;37815;52.692;6.226;2022-07-29T02:01:10;1.60;;;0.80;;
51738;SDS011;37815;52.692;6.226;2022-07-29T02:06:13;0.80;;;0.80;;
51738;SDS011;37815;52.692;6.226;2022-07-29T02:11:18;0.93;;;0.80;;
51738;SDS011;37815;52.692;6.226;2022-07-29T02:16:21;1.38;;;0.82;;
51738;SDS011;37815;52.692;6.226;2022-07-29T02:21:25;1.13;;;0.80;;
51738;SDS011;37815;52.692;6.226;2022-07-29T02:26:28;1.98;;;1.15;;
51738;SDS011;37815;52.692;6.226;2022-07-29T02:31:33;1.20;;;0.85;;
51738;SDS011;37815;52.692;6.226;2022-07-29T02:36:34;0.98;;;0.88;;
51738;SDS011;37815;52.692;6.226;2022-07-29T02:41:52;2.30;;;0.73;;
51738;SDS011;37815;52.692;6.226;2022-07-29T02:52:42;1.52;;;1.02;;
51738;SDS011;37815;52.692;6.226;2022-07-29T02:57:49;1.20;;;0.80;;
51738;SDS011;37815;52.692;6.226;2022-07-29T03:02:58;1.05;;;0.85;;
51738;SDS011;37815;52.692;6.226;2022-07-29T03:08:06;0.80;;;0.80;;
51738;SDS011;37815;52.692;6.226;2022-07-29T03:13:09;1.10;;;1.00;;
51738;SDS011;37815;52.692;6.226;2022-07-29T03:18:10;1.67;;;1.00;;
51738;SDS011;37815;52.692;6.226;2022-07-29T03:23:11;1.08;;;0.85;;
51738;SDS011;37815;52.692;6.226;2022-07-29T03:28:18;1.05;;;0.80;;
51738;SDS011;37815;52.692;6.226;2022-07-29T03:33:19;1.30;;;0.80;;
51738;SDS011;37815;52.692;6.226;2022-07-29T03:38:20;1.65;;;0.90;;
51738;SDS011;37815;52.692;6.226;2022-07-29T03:43:27;1.33;;;1.02;;
51738;SDS011;37815;52.692;6.226;2022-07-29T03:48:31;1.00;;;0.80;;
51738;SDS011;37815;52.692;6.226;2022-07-29T03:53:35;1.58;;;1.48;;
51738;SDS011;37815;52.692;6.226;2022-07-29T03:58:36;1.58;;;0.80;;
51738;SDS011;37815;52.692;6.226;2022-07-29T04:03:38;1.30;;;1.05;;
51738;SDS011;37815;52.692;6.226;2022-07-29T04:08:39;1.00;;;0.75;;
51738;SDS011;37815;52.692;6.226;2022-07-29T04:13:39;2.58;;;1.10;;
51738;SDS011;37815;52.692;6.226;2022-07-29T04:18:40;1.30;;;0.77;;
51738;SDS011;37815;52.692;6.226;2022-07-29T04:23:41;2.22;;;0.95;;
51738;SDS011;37815;52.692;6.226;2022-07-29T04:28:45;1.73;;;1.05;;
51738;SDS011;37815;52.692;6.226;2022-07-29T04:33:46;2.22;;;0.90;;
51738;SDS011;37815;52.692;6.226;2022-07-29T04:38:46;2.03;;;0.90;;
51738;SDS011;37815;52.692;6.226;2022-07-29T04:43:48;1.60;;;0.93;;
51738;SDS011;37815;52.692;6.226;2022-07-29T04:48:49;1.80;;;0.73;;
51738;SDS011;37815;52.692;6.226;2022-07-29T04:53:50;1.38;;;0.70;;
51738;SDS011;37815;52.692;6.226;2022-07-29T04:58:51;1.00;;;0.85;;
51738;SDS011;37815;52.692;6.226;2022-07-29T05:03:51;2.38;;;1.00;;
51738;SDS011;37815;52.692;6.226;2022-07-29T05:08:52;1.42;;;0.80;;
51738;SDS011;37815;52.692;6.226;2022-07-29T05:13:53;1.77;;;1.10;;
51738;SDS011;37815;52.692;6.226;2022-07-29T05:18:54;0.70;;;0.68;;
51738;SDS011;37815;52.692;6.226;2022-07-29T05:23:54;3.47;;;0.80;;
51738;SDS011;37815;52.692;6.226;2022-07-29T05:28:55;1.50;;;1.00;;
51738;SDS011;37815;52.692;6.226;2022-07-29T05:33:57;1.80;;;1.20;;
51738;SDS011;37815;52.692;6.226;2022-07-29T05:38:59;1.60;;;1.00;;
51738;SDS011;37815;52.692;6.226;2022-07-29T05:44:00;1.98;;;1.15;;
51738;SDS011;37815;52.692;6.226;2022-07-29T05:49:00;1.25;;;0.80;;
51738;SDS011;37815;52.692;6.226;2022-07-29T05:54:02;1.50;;;0.93;;
51738;SDS011;37815;52.692;6.226;2022-07-29T05:59:03;3.40;;;1.10;;
51738;SDS011;37815;52.692;6.226;2022-07-29T06:04:04;1.48;;;0.98;;
51738;SDS011;37815;52.692;6.226;2022-07-29T06:09:07;0.95;;;0.80;;
51738;SDS011;37815;52.692;6.226;2022-07-29T06:19:18;2.25;;;1.13;;
51738;SDS011;37815;52.692;6.226;2022-07-29T06:24:19;2.45;;;0.93;;
51738;SDS011;37815;52.692;6.226;2022-07-29T06:29:19;0.80;;;0.80;;
51738;SDS011;37815;52.692;6.226;2022-07-29T06:34:20;1.70;;;1.00;;
51738;SDS011;37815;52.692;6.226;2022-07-29T06:39:22;2.78;;;1.10;;
51738;SDS011;37815;52.692;6.226;2022-07-29T06:44:23;1.48;;;0.82;;
51738;SDS011;37815;52.692;6.226;2022-07-29T06:49:24;0.90;;;0.80;;
51738;SDS011;37815;52.692;6.226;2022-07-29T06:54:27;2.15;;;1.13;;
51738;SDS011;37815;52.692;6.226;2022-07-29T06:59:28;1.50;;;0.80;;
51738;SDS011;37815;52.692;6.226;2022-07-29T07:04:28;1.30;;;0.90;;
51738;SDS011;37815;52.692;6.226;2022-07-29T07:09:29;1.50;;;1.00;;
51738;SDS011;37815;52.692;6.226;2022-07-29T07:14:30;1.10;;;0.90;;
51738;SDS011;37815;52.692;6.226;2022-07-29T07:19:30;1.55;;;1.00;;
51738;SDS011;37815;52.692;6.226;2022-07-29T07:24:31;1.23;;;1.00;;
51738;SDS011;37815;52.692;6.226;2022-07-29T07:29:32;1.40;;;0.82;;
51738;SDS011;37815;52.692;6.226;2022-07-29T07:34:33;2.50;;;1.00;;
51738;SDS011;37815;52.692;6.226;2022-07-29T07:39:34;2.47;;;1.00;;
51738;SDS011;37815;52.692;6.226;2022-07-29T07:44:34;1.70;;;1.00;;
51738;SDS011;37815;52.692;6.226;2022-07-29T07:49:35;1.23;;;0.93;;
51738;SDS011;37815;52.692;6.226;2022-07-29T07:54:36;1.58;;;1.10;;
51738;SDS011;37815;52.692;6.226;2022-07-29T07:59:36;2.53;;;1.17;;
51738;SDS011;37815;52.692;6.226;2022-07-29T08:04:37;2.30;;;1.10;;
51738;SDS011;37815;52.692;6.226;2022-07-29T08:09:40;1.20;;;0.98;;
51738;SDS011;37815;52.692;6.226;2022-07-29T08:14:41;1.77;;;1.00;;
51738;SDS011;37815;52.692;6.226;2022-07-29T08:19:42;1.02;;;0.90;;
51738;SDS011;37815;52.692;6.226;2022-07-29T08:24:43;1.75;;;1.00;;
51738;SDS011;37815;52.692;6.226;2022-07-29T08:29:43;1.10;;;1.00;;
51738;SDS011;37815;52.692;6.226;2022-07-29T08:34:45;2.47;;;0.93;;
51738;SDS011;37815;52.692;6.226;2022-07-29T08:39:46;0.85;;;0.80;;
51738;SDS011;37815;52.692;6.226;2022-07-29T08:44:47;1.95;;;1.00;;
51738;SDS011;37815;52.692;6.226;2022-07-29T08:49:48;0.77;;;0.70;;
51738;SDS011;37815;52.692;6.226;2022-07-29T08:54:50;1.27;;;0.90;;
51738;SDS011;37815;52.692;6.226;2022-07-29T08:59:52;1.80;;;1.10;;
51738;SDS011;37815;52.692;6.226;2022-07-29T09:04:55;1.05;;;0.80;;
51738;SDS011;37815;52.692;6.226;2022-07-29T09:09:59;2.47;;;0.95;;
51738;SDS011;37815;52.692;6.226;2022-07-29T09:15:01;3.00;;;1.10;;
51738;SDS011;37815;52.692;6.226;2022-07-29T09:20:11;1.38;;;0.80;;
51738;SDS011;37815;52.692;6.226;2022-07-29T09:30:33;1.90;;;1.17;;
51738;SDS011;37815;52.692;6.226;2022-07-29T09:35:33;2.13;;;1.00;;
51738;SDS011;37815;52.692;6.226;2022-07-29T09:40:34;1.70;;;0.70;;
51738;SDS011;37815;52.692;6.226;2022-07-29T09:45:35;1.73;;;1.05;;
51738;SDS011;37815;52.692;6.226;2022-07-29T09:50:41;2.00;;;0.95;;
51738;SDS011;37815;52.692;6.226;2022-07-29T09:55:49;2.00;;;1.08;;
51738;SDS011;37815;52.692;6.226;2022-07-29T10:00:51;1.00;;;0.75;;
51738;SDS011;37815;52.692;6.226;2022-07-29T10:06:08;1.60;;;1.05;;
51738;SDS011;37815;52.692;6.226;2022-07-29T10:16:13;6.72;;;1.90;;
51738;SDS011;37815;52.692;6.226;2022-07-29T10:21:14;3.33;;;1.90;;
51738;SDS011;37815;52.692;6.226;2022-07-29T10:26:15;6.45;;;2.30;;
51738;SDS011;37815;52.692;6.226;2022-07-29T10:31:26;6.18;;;2.40;;
51738;SDS011;37815;52.692;6.226;2022-07-29T10:47:03;7.05;;;2.30;;
51738;SDS011;37815;52.692;6.226;2022-07-29T10:52:04;4.05;;;2.40;;
51738;SDS011;37815;52.692;6.226;2022-07-29T11:07:36;4.50;;;2.47;;
51738;SDS011;37815;52.692;6.226;2022-07-29T11:22:58;7.63;;;2.53;;
51738;SDS011;37815;52.692;6.226;2022-07-29T11:28:08;3.80;;;2.88;;
51738;SDS011;37815;52.692;6.226;2022-07-29T11:38:29;4.25;;;2.28;;
51738;SDS011;37815;52.692;6.226;2022-07-29T11:43:49;4.68;;;2.65;;
51738;SDS011;37815;52.692;6.226;2022-07-29T11:48:51;4.65;;;2.38;;
51738;SDS011;37815;52.692;6.226;2022-07-29T11:53:52;8.23;;;2.55;;
51738;SDS011;37815;52.692;6.226;2022-07-29T11:59:03;6.35;;;2.60;;
51738;SDS011;37815;52.692;6.226;2022-07-29T12:04:05;4.10;;;2.80;;
51738;SDS011;37815;52.692;6.226;2022-07-29T12:09:09;5.90;;;2.30;;
51738;SDS011;37815;52.692;6.226;2022-07-29T12:14:23;3.83;;;2.15;;
51738;SDS011;37815;52.692;6.226;2022-07-29T12:24:41;5.32;;;2.70;;
51738;SDS011;37815;52.692;6.226;2022-07-29T12:29:43;5.22;;;3.00;;
51738;SDS011;37815;52.692;6.226;2022-07-29T12:34:45;4.20;;;2.88;;
51738;SDS011;37815;52.692;6.226;2022-07-29T12:39:46;4.90;;;2.42;;
51738;SDS011;37815;52.692;6.226;2022-07-29T12:44:50;4.03;;;2.25;;
51738;SDS011;37815;52.692;6.226;2022-07-29T12:49:52;3.65;;;2.40;;
51738;SDS011;37815;52.692;6.226;2022-07-29T12:55:11;4.53;;;2.25;;
51738;SDS011;37815;52.692;6.226;2022-07-29T13:00:13;4.80;;;2.90;;
51738;SDS011;37815;52.692;6.226;2022-07-29T13:05:14;7.18;;;3.25;;
51738;SDS011;37815;52.692;6.226;2022-07-29T13:10:16;4.18;;;2.33;;
51738;SDS011;37815;52.692;6.226;2022-07-29T13:15:19;2.38;;;1.83;;
51738;SDS011;37815;52.692;6.226;2022-07-29T13:20:23;5.32;;;1.88;;
51738;SDS011;37815;52.692;6.226;2022-07-29T13:25:28;4.75;;;2.35;;
51738;SDS011;37815;52.692;6.226;2022-07-29T13:30:30;5.40;;;2.42;;
51738;SDS011;37815;52.692;6.226;2022-07-29T13:35:31;5.15;;;2.72;;
51738;SDS011;37815;52.692;6.226;2022-07-29T13:40:31;4.50;;;2.85;;
51738;SDS011;37815;52.692;6.226;2022-07-29T13:45:35;5.05;;;3.35;;
51738;SDS011;37815;52.692;6.226;2022-07-29T13:50:35;3.92;;;2.80;;
51738;SDS011;37815;52.692;6.226;2022-07-29T13:55:36;9.48;;;3.45;;
51738;SDS011;37815;52.692;6.226;2022-07-29T14:00:37;4.55;;;2.78;;
51738;SDS011;37815;52.692;6.226;2022-07-29T14:05:38;4.18;;;3.00;;
51738;SDS011;37815;52.692;6.226;2022-07-29T14:10:38;3.30;;;2.28;;
51738;SDS011;37815;52.692;6.226;2022-07-29T14:15:39;4.57;;;2.83;;
51738;SDS011;37815;52.692;6.226;2022-07-29T14:20:40;4.43;;;2.75;;
51738;SDS011;37815;52.692;6.226;2022-07-29T14:25:41;4.55;;;2.80;;
51738;SDS011;37815;52.692;6.226;2022-07-29T14:30:42;3.85;;;2.40;;
51738;SDS011;37815;52.692;6.226;2022-07-29T14:35:44;4.10;;;2.90;;
51738;SDS011;37815;52.692;6.226;2022-07-29T14:40:44;3.72;;;2.10;;
51738;SDS011;37815;52.692;6.226;2022-07-29T14:45:46;4.15;;;2.58;;
51738;SDS011;37815;52.692;6.226;2022-07-29T14:50:47;8.60;;;2.20;;
51738;SDS011;37815;52.692;6.226;2022-07-29T14:55:48;2.40;;;1.70;;
51738;SDS011;37815;52.692;6.226;2022-07-29T15:00:49;2.85;;;1.50;;
51738;SDS011;37815;52.692;6.226;2022-07-29T15:05:50;2.42;;;1.70;;
51738;SDS011;37815;52.692;6.226;2022-07-29T15:10:51;2.20;;;1.75;;
51738;SDS011;37815;52.692;6.226;2022-07-29T15:15:52;4.97;;;1.67;;
51738;SDS011;37815;52.692;6.226;2022-07-29T15:20:53;3.25;;;1.80;;
51738;SDS011;37815;52.692;6.226;2022-07-29T15:25:53;3.22;;;1.70;;
51738;SDS011;37815;52.692;6.226;2022-07-29T15:30:54;3.40;;;1.48;;
51738;SDS011;37815;52.692;6.226;2022-07-29T15:35:55;2.25;;;1.35;;
51738;SDS011;37815;52.692;6.226;2022-07-29T15:40:56;3.90;;;1.75;;
51738;SDS011;37815;52.692;6.226;2022-07-29T15:45:57;2.05;;;1.20;;
51738;SDS011;37815;52.692;6.226;2022-07-29T15:51:16;1.85;;;1.40;;
51738;SDS011;37815;52.692;6.226;2022-07-29T15:56:16;3.33;;;1.33;;
51738;SDS011;37815;52.692;6.226;2022-07-29T16:01:17;2.40;;;1.45;;
51738;SDS011;37815;52.692;6.226;2022-07-29T16:06:18;3.22;;;1.70;;
51738;SDS011;37815;52.692;6.226;2022-07-29T16:11:19;2.20;;;1.35;;
51738;SDS011;37815;52.692;6.226;2022-07-29T16:16:20;1.73;;;1.40;;
51738;SDS011;37815;52.692;6.226;2022-07-29T16:21:21;2.88;;;1.30;;
51738;SDS011;37815;52.692;6.226;2022-07-29T16:26:24;6.53;;;2.30;;
51738;SDS011;37815;52.692;6.226;2022-07-29T16:36:36;8.45;;;2.38;;
51738;SDS011;37815;52.692;6.226;2022-07-29T16:41:37;3.85;;;1.90;;
51738;SDS011;37815;52.692;6.226;2022-07-29T16:46:37;3.85;;;2.10;;
51738;SDS011;37815;52.692;6.226;2022-07-29T16:51:38;5.95;;;2.22;;
51738;SDS011;37815;52.692;6.226;2022-07-29T16:56:39;5.32;;;2.00;;
51738;SDS011;37815;52.692;6.226;2022-07-29T17:01:39;4.18;;;2.30;;
51738;SDS011;37815;52.692;6.226;2022-07-29T17:06:41;3.17;;;2.22;;
51738;SDS011;37815;52.692;6.226;2022-07-29T17:11:42;8.77;;;2.30;;
51738;SDS011;37815;52.692;6.226;2022-07-29T17:16:43;3.08;;;1.98;;
51738;SDS011;37815;52.692;6.226;2022-07-29T17:21:44;4.47;;;1.90;;
51738;SDS011;37815;52.692;6.226;2022-07-29T17:26:44;6.88;;;2.25;;
51738;SDS011;37815;52.692;6.226;2022-07-29T17:31:46;6.80;;;2.35;;
51738;SDS011;37815;52.692;6.226;2022-07-29T17:36:46;4.35;;;1.90;;
51738;SDS011;37815;52.692;6.226;2022-07-29T17:41:47;3.85;;;2.05;;
51738;SDS011;37815;52.692;6.226;2022-07-29T17:46:48;9.85;;;3.42;;
51738;SDS011;37815;52.692;6.226;2022-07-29T17:51:49;17.83;;;4.22;;
51738;SDS011;37815;52.692;6.226;2022-07-29T17:56:50;7.25;;;2.53;;
51738;SDS011;37815;52.692;6.226;2022-07-29T18:01:50;7.75;;;2.83;;
51738;SDS011;37815;52.692;6.226;2022-07-29T18:06:52;5.35;;;2.10;;
51738;SDS011;37815;52.692;6.226;2022-07-29T18:11:52;3.10;;;2.10;;
51738;SDS011;37815;52.692;6.226;2022-07-29T18:16:53;4.28;;;2.35;;
51738;SDS011;37815;52.692;6.226;2022-07-29T18:21:54;3.08;;;2.08;;
51738;SDS011;37815;52.692;6.226;2022-07-29T18:26:55;5.18;;;2.08;;
51738;SDS011;37815;52.692;6.226;2022-07-29T18:31:55;3.97;;;1.80;;
51738;SDS011;37815;52.692;6.226;2022-07-29T18:36:58;3.42;;;2.17;;
51738;SDS011;37815;52.692;6.226;2022-07-29T18:41:59;4.22;;;2.20;;
51738;SDS011;37815;52.692;6.226;2022-07-29T18:47:01;3.60;;;2.08;;
51738;SDS011;37815;52.692;6.226;2022-07-29T18:52:02;5.55;;;2.40;;
51738;SDS011;37815;52.692;6.226;2022-07-29T18:57:03;6.65;;;2.25;;
51738;SDS011;37815;52.692;6.226;2022-07-29T19:02:04;3.60;;;2.15;;
51738;SDS011;37815;52.692;6.226;2022-07-29T19:07:05;3.22;;;2.10;;
51738;SDS011;37815;52.692;6.226;2022-07-29T19:12:05;6.38;;;2.22;;
51738;SDS011;37815;52.692;6.226;2022-07-29T19:17:06;8.35;;;2.60;;
51738;SDS011;37815;52.692;6.226;2022-07-29T19:22:07;6.78;;;2.33;;
51738;SDS011;37815;52.692;6.226;2022-07-29T19:27:08;3.83;;;2.20;;
51738;SDS011;37815;52.692;6.226;2022-07-29T19:32:09;4.88;;;2.47;;
51738;SDS011;37815;52.692;6.226;2022-07-29T19:37:09;3.53;;;2.22;;
51738;SDS011;37815;52.692;6.226;2022-07-29T19:42:10;5.45;;;2.63;;
51738;SDS011;37815;52.692;6.226;2022-07-29T19:47:11;2.50;;;1.80;;
51738;SDS011;37815;52.692;6.226;2022-07-29T19:52:12;4.50;;;2.35;;
51738;SDS011;37815;52.692;6.226;2022-07-29T19:57:13;5.88;;;2.20;;
51738;SDS011;37815;52.692;6.226;2022-07-29T20:02:13;3.38;;;2.38;;
51738;SDS011;37815;52.692;6.226;2022-07-29T20:07:14;3.03;;;1.92;;
51738;SDS011;37815;52.692;6.226;2022-07-29T20:12:15;2.47;;;2.00;;
51738;SDS011;37815;52.692;6.226;2022-07-29T20:17:16;4.65;;;2.10;;
51738;SDS011;37815;52.692;6.226;2022-07-29T20:22:23;3.47;;;2.00;;
51738;SDS011;37815;52.692;6.226;2022-07-29T20:27:24;5.07;;;2.35;;
51738;SDS011;37815;52.692;6.226;2022-07-29T20:32:25;3.03;;;2.15;;
51738;SDS011;37815;52.692;6.226;2022-07-29T20:37:26;3.97;;;2.10;;
51738;SDS011;37815;52.692;6.226;2022-07-29T20:42:26;4.53;;;2.45;;
51738;SDS011;37815;52.692;6.226;2022-07-29T20:47:27;3.40;;;2.40;;
51738;SDS011;37815;52.692;6.226;2022-07-29T20:52:28;2.83;;;2.00;;
51738;SDS011;37815;52.692;6.226;2022-07-29T20:57:29;3.08;;;2.30;;
51738;SDS011;37815;52.692;6.226;2022-07-29T21:02:29;2.55;;;2.13;;
51738;SDS011;37815;52.692;6.226;2022-07-29T21:07:30;3.80;;;2.47;;
51738;SDS011;37815;52.692;6.226;2022-07-29T21:12:31;2.88;;;2.53;;
51738;SDS011;37815;52.692;6.226;2022-07-29T21:17:33;3.20;;;2.10;;
51738;SDS011;37815;52.692;6.226;2022-07-29T21:22:35;4.28;;;2.35;;
51738;SDS011;37815;52.692;6.226;2022-07-29T21:27:36;4.10;;;2.40;;
51738;SDS011;37815;52.692;6.226;2022-07-29T21:32:55;3.78;;;2.42;;
51738;SDS011;37815;52.692;6.226;2022-07-29T21:37:56;4.28;;;2.88;;
51738;SDS011;37815;52.692;6.226;2022-07-29T21:42:57;3.53;;;2.22;;
51738;SDS011;37815;52.692;6.226;2022-07-29T21:47:58;3.50;;;2.40;;
51738;SDS011;37815;52.692;6.226;2022-07-29T21:52:59;3.80;;;2.40;;
51738;SDS011;37815;52.692;6.226;2022-07-29T21:58:00;4.63;;;2.58;;
51738;SDS011;37815;52.692;6.226;2022-07-29T22:03:01;3.72;;;2.75;;
51738;SDS011;37815;52.692;6.226;2022-07-29T22:08:03;4.93;;;2.67;;
51738;SDS011;37815;52.692;6.226;2022-07-29T22:13:04;4.15;;;2.65;;
51738;SDS011;37815;52.692;6.226;2022-07-29T22:18:05;3.63;;;2.53;;
51738;SDS011;37815;52.692;6.226;2022-07-29T22:23:06;4.32;;;2.63;;
51738;SDS011;37815;52.692;6.226;2022-07-29T22:28:06;2.88;;;2.58;;
51738;SDS011;37815;52.692;6.226;2022-07-29T22:33:07;5.18;;;2.65;;
51738;SDS011;37815;52.692;6.226;2022-07-29T22:38:08;3.42;;;2.78;;
51738;SDS011;37815;52.692;6.226;2022-07-29T22:43:08;3.83;;;2.70;;
51738;SDS011;37815;52.692;6.226;2022-07-29T22:48:09;4.20;;;2.58;;
51738;SDS011;37815;52.692;6.226;2022-07-29T22:53:10;4.28;;;2.90;;
51738;SDS011;37815;52.692;6.226;2022-07-29T22:58:11;4.32;;;3.15;;
51738;SDS011;37815;52.692;6.226;2022-07-29T23:03:12;5.50;;;2.80;;
51738;SDS011;37815;52.692;6.226;2022-07-29T23:08:12;2.80;;;2.33;;
51738;SDS011;37815;52.692;6.226;2022-07-29T23:13:13;3.90;;;2.80;;
51738;SDS011;37815;52.692;6.226;2022-07-29T23:18:14;4.15;;;3.20;;
51738;SDS011;37815;52.692;6.226;2022-07-29T23:23:15;4.35;;;2.95;;
51738;SDS011;37815;52.692;6.226;2022-07-29T23:28:15;5.18;;;3.05;;
51738;SDS011;37815;52.692;6.226;2022-07-29T23:33:16;3.47;;;2.92;;
51738;SDS011;37815;52.692;6.226;2022-07-29T23:38:17;7.78;;;2.67;;
51738;SDS011;37815;52.692;6.226;2022-07-29T23:43:17;3.10;;;2.55;;
51738;SDS011;37815;52.692;6.226;2022-07-29T23:48:18;3.40;;;2.30;;
51738;SDS011;37815;52.692;6.226;2022-07-29T23:53:19;6.03;;;2.67;;
51738;SDS011;37815;52.692;6.226;2022-07-29T23:58:22;5.97;;;2.97;;
